createdAt,value
2023-01-27T00:01:11.440Z,-1.20
2023-01-27T00:03:39.604Z,0.10
2023-01-27T00:06:12.101Z,-0.80
2023-01-27T00:08:40.542Z,-0.80
2023-01-27T00:11:27.382Z,-1.20
2023-01-27T00:13:56.491Z,-1.20
2023-01-27T00:16:24.757Z,-1.20
2023-01-27T00:18:52.961Z,-1.20
2023-01-27T00:21:38.989Z,-1.20
2023-01-27T00:24:24.793Z,-1.20
2023-01-27T00:26:54.393Z,-1.30
2023-01-27T00:29:22.415Z,-1.30
2023-01-27T00:32:07.924Z,-0.70
2023-01-27T00:34:36.076Z,-1.20
2023-01-27T00:37:04.239Z,-1.20
2023-01-27T00:39:32.392Z,-1.20
2023-01-27T00:42:02.047Z,-1.20
2023-01-27T00:44:30.251Z,-1.20
2023-01-27T00:46:58.389Z,-1.20
2023-01-27T00:49:26.588Z,-1.20
2023-01-27T00:51:55.186Z,-1.20
2023-01-27T00:54:23.338Z,-1.20
2023-01-27T00:56:51.910Z,-1.20
2023-01-27T00:59:22.648Z,0.20
2023-01-27T01:01:51.763Z,0.50
2023-01-27T01:04:20.183Z,-1.20
2023-01-27T01:06:48.332Z,0.00
2023-01-27T01:09:16.469Z,-0.30
2023-01-27T01:11:44.637Z,-1.20
2023-01-27T01:14:12.815Z,-1.20
2023-01-27T01:16:42.438Z,-1.20
2023-01-27T01:19:10.721Z,-1.20
2023-01-27T01:21:40.897Z,-0.20
2023-01-27T01:24:09.525Z,-1.20
2023-01-27T01:26:37.705Z,-1.10
2023-01-27T01:29:05.950Z,-1.20
2023-01-27T01:31:34.221Z,-1.20
2023-01-27T01:34:03.907Z,-1.20
2023-01-27T01:36:32.116Z,-1.20
2023-01-27T01:39:00.233Z,-1.20
2023-01-27T01:41:28.871Z,-1.20
2023-01-27T01:43:56.955Z,-1.20
2023-01-27T01:46:25.144Z,-1.20
2023-01-27T01:48:59.094Z,-1.20
2023-01-27T01:51:33.171Z,-1.20
2023-01-27T01:54:04.811Z,-1.20
2023-01-27T01:56:37.605Z,-1.20
2023-01-27T01:59:09.620Z,-0.90
2023-01-27T02:01:37.932Z,-1.20
2023-01-27T02:04:10.951Z,-1.20
2023-01-27T02:06:45.201Z,-1.30
2023-01-27T02:09:13.372Z,-1.20
2023-01-27T02:11:41.504Z,-1.30
2023-01-27T02:14:10.095Z,-1.30
2023-01-27T02:16:38.666Z,-1.30
2023-01-27T02:19:34.983Z,-1.30
2023-01-27T02:22:08.080Z,-1.30
2023-01-27T02:24:43.668Z,-1.30
2023-01-27T02:27:14.397Z,-1.30
2023-01-27T02:29:42.526Z,-1.30
2023-01-27T02:32:22.737Z,-1.30
2023-01-27T02:34:51.024Z,-1.30
2023-01-27T02:37:21.140Z,-1.30
2023-01-27T02:39:52.091Z,-1.30
2023-01-27T02:42:21.787Z,-1.30
2023-01-27T02:44:50.163Z,-1.30
2023-01-27T02:47:18.279Z,-1.30
2023-01-27T02:49:46.605Z,-1.30
2023-01-27T02:52:15.199Z,-1.30
2023-01-27T02:54:43.288Z,-1.30
2023-01-27T02:57:11.387Z,-1.30
2023-01-27T02:59:40.936Z,-1.30
2023-01-27T03:02:09.306Z,-1.30
2023-01-27T03:04:38.933Z,-1.30
2023-01-27T03:07:07.117Z,-1.30
2023-01-27T03:09:35.258Z,-1.30
2023-01-27T03:12:21.371Z,-1.30
2023-01-27T03:15:09.793Z,-1.30
2023-01-27T03:17:56.805Z,-1.30
2023-01-27T03:20:24.983Z,-1.40
2023-01-27T03:22:53.044Z,-1.40
2023-01-27T03:25:21.157Z,-1.30
2023-01-27T03:27:49.215Z,-1.30
2023-01-27T03:30:19.149Z,-1.30
2023-01-27T03:32:47.826Z,-1.30
2023-01-27T03:35:16.508Z,-1.30
2023-01-27T03:38:01.919Z,-1.30
2023-01-27T03:40:47.659Z,-1.30
2023-01-27T03:43:33.953Z,-1.30
2023-01-27T03:46:22.444Z,-1.30
2023-01-27T03:48:52.645Z,-1.30
2023-01-27T03:51:21.807Z,-1.30
2023-01-27T03:53:51.139Z,-1.30
2023-01-27T03:56:21.109Z,-1.30
2023-01-27T03:58:50.535Z,-1.30
2023-01-27T04:01:22.217Z,-1.30
2023-01-27T04:04:08.659Z,-1.30
2023-01-27T04:06:58.395Z,-1.30
2023-01-27T04:09:28.656Z,-1.30
2023-01-27T04:11:59.028Z,-1.30
2023-01-27T04:14:29.701Z,-1.30
2023-01-27T04:17:01.626Z,-1.30
2023-01-27T04:19:30.170Z,-1.30
2023-01-27T04:21:59.311Z,-1.40
2023-01-27T04:24:27.856Z,-1.30
2023-01-27T04:26:57.866Z,-1.40
2023-01-27T04:29:28.131Z,-1.40
2023-01-27T04:31:57.997Z,-1.30
2023-01-27T04:34:28.932Z,-1.30
2023-01-27T04:36:57.756Z,-1.30
2023-01-27T04:39:26.621Z,-1.30
2023-01-27T04:41:54.789Z,-1.30
2023-01-27T04:44:22.869Z,-1.30
2023-01-27T04:46:51.441Z,-1.30
2023-01-27T04:49:20.113Z,-1.30
2023-01-27T04:51:49.644Z,-1.30
2023-01-27T04:54:17.976Z,-1.30
2023-01-27T04:56:57.500Z,-1.30
2023-01-27T04:59:25.896Z,-1.30
2023-01-27T05:01:54.321Z,-1.30
2023-01-27T05:04:22.518Z,-1.30
2023-01-27T05:06:52.067Z,-1.30
2023-01-27T05:09:20.346Z,-1.30
2023-01-27T05:11:48.501Z,-1.30
2023-01-27T05:14:16.735Z,-1.30
2023-01-27T05:16:44.867Z,-1.30
2023-01-27T05:19:13.027Z,-1.30
2023-01-27T05:21:41.106Z,-1.30
2023-01-27T05:24:11.908Z,-1.30
2023-01-27T05:26:40.771Z,-1.30
2023-01-27T05:29:10.294Z,-1.30
2023-01-27T05:31:38.611Z,-1.30
2023-01-27T05:34:06.927Z,-1.30
2023-01-27T05:36:35.296Z,-1.30
2023-01-27T05:39:03.488Z,-1.30
2023-01-27T05:41:33.086Z,-1.30
2023-01-27T05:44:01.322Z,-1.30
2023-01-27T05:46:31.197Z,-1.30
2023-01-27T05:49:04.338Z,-1.30
2023-01-27T05:51:34.805Z,-1.30
2023-01-27T05:54:02.969Z,-1.30
2023-01-27T05:56:33.157Z,-1.30
2023-01-27T05:59:01.552Z,-1.30
2023-01-27T06:01:32.171Z,-1.30
2023-01-27T06:04:00.596Z,-1.30
2023-01-27T06:06:30.726Z,-1.30
2023-01-27T06:08:59.258Z,-1.40
2023-01-27T06:11:27.792Z,-1.30
2023-01-27T06:13:57.395Z,-1.40
2023-01-27T06:16:25.589Z,-1.30
2023-01-27T06:18:53.796Z,-1.40
2023-01-27T06:21:22.155Z,-1.30
2023-01-27T06:23:50.536Z,-1.40
2023-01-27T06:26:20.612Z,-1.30
2023-01-27T06:28:49.249Z,-1.30
2023-01-27T06:31:21.655Z,-1.30
2023-01-27T06:33:50.051Z,-1.30
2023-01-27T06:36:20.791Z,-1.30
2023-01-27T06:38:49.662Z,-1.30
2023-01-27T06:41:17.805Z,-1.30
2023-01-27T06:43:45.923Z,-1.20
2023-01-27T06:46:15.128Z,-1.20
2023-01-27T06:48:44.735Z,-1.20
2023-01-27T06:51:14.084Z,-1.20
2023-01-27T06:53:42.429Z,-1.20
2023-01-27T06:56:10.552Z,-1.20
2023-01-27T06:58:38.699Z,-1.20
2023-01-27T07:01:07.474Z,-1.20
2023-01-27T07:06:04.095Z,-1.10
2023-01-27T07:08:32.497Z,-1.20
2023-01-27T07:11:03.796Z,-1.20
2023-01-27T07:13:31.955Z,-1.20
2023-01-27T07:16:00.626Z,-1.20
2023-01-27T07:18:28.781Z,-1.20
2023-01-27T07:20:56.919Z,-1.10
2023-01-27T07:23:26.711Z,-1.20
2023-01-27T07:25:54.865Z,-1.20
2023-01-27T07:28:23.072Z,-1.10
2023-01-27T07:30:51.231Z,-1.20
2023-01-27T07:33:19.316Z,-1.10
2023-01-27T07:35:50.454Z,-1.10
2023-01-27T07:38:18.770Z,-1.10
2023-01-27T07:40:48.481Z,-1.10
2023-01-27T07:43:16.536Z,-1.10
2023-01-27T07:45:48.949Z,-1.10
2023-01-27T07:48:17.426Z,-1.00
2023-01-27T07:50:45.597Z,-1.00
2023-01-27T07:53:13.710Z,-1.00
2023-01-27T07:55:41.826Z,-1.00
2023-01-27T07:58:11.483Z,-1.00
2023-01-27T08:00:39.612Z,0.60
2023-01-27T08:03:07.934Z,-1.00
2023-01-27T08:05:38.481Z,-1.00
2023-01-27T08:08:07.094Z,-0.90
2023-01-27T08:10:35.216Z,-1.00
2023-01-27T08:13:04.199Z,-0.90
2023-01-27T08:15:36.750Z,-0.80
2023-01-27T08:18:07.338Z,-0.70
2023-01-27T08:20:39.715Z,-0.70
2023-01-27T08:23:14.715Z,0.10
2023-01-27T08:25:59.700Z,0.00
2023-01-27T08:28:31.243Z,-1.10
2023-01-27T08:31:09.946Z,-0.50
2023-01-27T08:33:59.126Z,0.60
2023-01-27T08:36:30.703Z,-0.40
2023-01-27T08:38:58.827Z,1.30
2023-01-27T08:41:28.649Z,-0.20
2023-01-27T08:43:57.160Z,-0.10
2023-01-27T08:46:27.056Z,1.20
2023-01-27T08:48:55.176Z,0.10
2023-01-27T08:51:23.297Z,0.20
2023-01-27T08:53:51.465Z,0.40
2023-01-27T08:56:20.011Z,0.60
2023-01-27T08:58:48.656Z,0.70
2023-01-27T09:01:17.913Z,0.80
2023-01-27T09:03:47.806Z,0.90
2023-01-27T09:06:16.366Z,2.20
2023-01-27T09:09:05.922Z,0.80
2023-01-27T09:11:34.267Z,0.80
2023-01-27T09:14:02.503Z,0.60
2023-01-27T09:16:30.702Z,0.50
2023-01-27T09:19:00.324Z,0.40
2023-01-27T09:21:28.691Z,0.30
2023-01-27T09:23:56.972Z,0.20
2023-01-27T09:26:25.081Z,0.20
2023-01-27T09:28:53.311Z,0.20
2023-01-27T09:31:21.508Z,0.20
2023-01-27T09:33:49.679Z,0.20
2023-01-27T09:36:21.619Z,0.20
2023-01-27T09:38:53.546Z,0.20
2023-01-27T09:41:41.138Z,0.30
2023-01-27T09:44:29.922Z,0.30
2023-01-27T09:47:18.712Z,0.20
2023-01-27T09:50:12.484Z,0.30
2023-01-27T09:53:18.691Z,0.40
2023-01-27T09:55:54.295Z,0.40
2023-01-27T09:58:33.971Z,0.60
2023-01-27T10:01:14.242Z,0.60
2023-01-27T10:03:59.264Z,0.70
2023-01-27T10:06:43.015Z,0.60
2023-01-27T10:09:36.239Z,0.50
2023-01-27T10:12:13.621Z,0.50
2023-01-27T10:14:50.474Z,0.80
2023-01-27T10:17:31.923Z,0.60
2023-01-27T10:20:15.704Z,0.60
2023-01-27T10:22:53.475Z,0.60
2023-01-27T10:25:36.668Z,0.70
2023-01-27T10:28:14.925Z,1.40
2023-01-27T10:30:49.619Z,0.80
2023-01-27T10:33:19.690Z,0.70
2023-01-27T10:35:53.694Z,1.90
2023-01-27T10:38:35.773Z,1.70
2023-01-27T10:41:15.840Z,0.60
2023-01-27T10:43:56.143Z,0.50
2023-01-27T10:46:32.367Z,0.40
2023-01-27T10:49:05.763Z,0.40
2023-01-27T10:51:38.276Z,0.30
2023-01-27T10:54:13.910Z,0.30
2023-01-27T10:56:47.180Z,0.20
2023-01-27T10:59:23.646Z,0.20
2023-01-27T11:01:57.691Z,0.10
2023-01-27T11:04:34.407Z,0.10
2023-01-27T11:07:05.055Z,0.00
2023-01-27T11:09:37.154Z,0.00
2023-01-27T11:12:11.734Z,0.20
2023-01-27T11:14:46.909Z,0.10
2023-01-27T11:17:18.886Z,1.70
2023-01-27T11:19:58.330Z,1.80
2023-01-27T11:22:34.009Z,1.90
2023-01-27T11:25:08.982Z,0.30
2023-01-27T11:27:58.878Z,0.40
2023-01-27T11:30:35.627Z,0.30
2023-01-27T11:33:13.442Z,0.30
2023-01-27T11:35:41.700Z,0.20
2023-01-27T11:38:16.042Z,2.00
2023-01-27T11:40:45.477Z,0.30
2023-01-27T11:43:19.703Z,0.30
2023-01-27T11:45:49.643Z,1.20
2023-01-27T11:48:23.146Z,0.30
2023-01-27T11:50:51.871Z,0.20
2023-01-27T11:53:25.814Z,0.30
2023-01-27T11:55:58.646Z,0.20
2023-01-27T11:58:33.116Z,0.20
2023-01-27T12:01:04.171Z,0.20
2023-01-27T12:03:46.771Z,0.20
2023-01-27T12:06:19.454Z,0.10
2023-01-27T12:08:49.729Z,0.00
2023-01-27T12:11:21.184Z,0.10
2023-01-27T12:13:52.853Z,0.10
2023-01-27T12:16:21.669Z,0.20
2023-01-27T12:18:55.473Z,0.20
2023-01-27T12:21:36.257Z,0.20
2023-01-27T12:24:05.151Z,1.70
2023-01-27T12:26:38.528Z,0.50
2023-01-27T12:29:18.356Z,1.50
2023-01-27T12:31:49.481Z,0.60
2023-01-27T12:34:34.103Z,0.50
2023-01-27T12:37:03.475Z,0.50
2023-01-27T12:39:41.397Z,0.60
2023-01-27T12:42:41.551Z,1.40
2023-01-27T12:45:26.384Z,0.50
2023-01-27T12:48:18.104Z,0.60
2023-01-27T12:50:56.693Z,0.70
2023-01-27T12:53:27.848Z,0.70
2023-01-27T12:56:00.514Z,1.60
2023-01-27T12:58:36.195Z,0.80
2023-01-27T13:01:08.691Z,1.50
2023-01-27T13:03:43.437Z,0.90
2023-01-27T13:06:16.944Z,0.90
2023-01-27T13:08:46.119Z,0.80
2023-01-27T13:11:14.423Z,1.20
2023-01-27T13:13:52.078Z,0.60
2023-01-27T13:16:29.816Z,0.60
2023-01-27T13:19:00.101Z,0.50
2023-01-27T13:21:33.654Z,0.60
2023-01-27T13:24:05.063Z,1.50
2023-01-27T13:26:37.388Z,0.60
2023-01-27T13:29:13.485Z,0.60
2023-01-27T13:31:49.536Z,-0.20
2023-01-27T13:34:24.793Z,0.60
2023-01-27T13:36:57.958Z,0.60
2023-01-27T13:39:43.310Z,0.60
2023-01-27T13:42:19.112Z,0.60
2023-01-27T13:44:53.130Z,0.60
2023-01-27T13:47:27.529Z,0.60
2023-01-27T13:50:21.639Z,0.60
2023-01-27T14:00:40.838Z,-0.80
2023-01-27T14:03:43.820Z,1.80
2023-01-27T14:06:31.867Z,1.80
2023-01-27T14:09:10.947Z,1.00
2023-01-27T14:11:48.180Z,1.70
2023-01-27T14:14:26.491Z,0.40
2023-01-27T14:17:07.467Z,1.40
2023-01-27T14:19:45.852Z,1.90
2023-01-27T14:22:23.890Z,0.30
2023-01-27T14:24:58.164Z,0.30
2023-01-27T14:27:33.762Z,0.20
2023-01-27T14:30:09.699Z,0.20
2023-01-27T14:32:45.248Z,0.00
2023-01-27T14:35:28.271Z,1.20
2023-01-27T14:38:09.685Z,0.00
2023-01-27T14:40:47.785Z,0.10
2023-01-27T14:43:24.315Z,0.00
2023-01-27T14:45:57.188Z,1.70
2023-01-27T14:48:43.394Z,1.60
2023-01-27T14:51:24.567Z,1.30
2023-01-27T14:54:17.357Z,0.00
2023-01-27T14:56:48.367Z,-0.10
2023-01-27T14:59:39.787Z,-0.10
2023-01-27T15:02:23.515Z,-0.10
2023-01-27T15:05:01.506Z,0.00
2023-01-27T15:07:43.190Z,1.00
2023-01-27T15:10:22.493Z,-0.10
2023-01-27T15:13:12.463Z,1.20
2023-01-27T15:16:08.901Z,-0.10
2023-01-27T15:19:00.014Z,0.90
2023-01-27T15:21:42.187Z,-0.10
2023-01-27T15:24:41.693Z,1.90
2023-01-27T15:27:11.038Z,1.10
2023-01-27T15:29:40.027Z,-0.20
2023-01-27T15:32:14.236Z,1.50
2023-01-27T15:34:44.522Z,0.00
2023-01-27T15:37:21.160Z,0.90
2023-01-27T15:40:16.567Z,0.90
2023-01-27T15:42:52.509Z,1.60
2023-01-27T15:45:29.740Z,1.00
2023-01-27T15:48:03.257Z,-0.20
2023-01-27T15:50:34.318Z,1.00
2023-01-27T15:53:07.499Z,0.90
2023-01-27T15:55:48.745Z,0.50
2023-01-27T15:58:28.909Z,-0.40
2023-01-27T16:00:59.737Z,0.10
2023-01-27T16:03:32.586Z,-0.30
2023-01-27T16:06:11.681Z,0.70
2023-01-27T16:08:49.999Z,1.40
2023-01-27T16:11:42.471Z,1.40
2023-01-27T16:14:45.910Z,-0.30
2023-01-27T16:17:35.169Z,-0.30
2023-01-27T16:20:23.293Z,-0.20
2023-01-27T16:22:59.058Z,1.30
2023-01-27T16:25:39.382Z,0.50
2023-01-27T16:28:15.830Z,-0.30
2023-01-27T16:30:50.103Z,0.90
2023-01-27T16:33:23.805Z,1.10
2023-01-27T16:35:55.660Z,1.00
2023-01-27T16:38:28.081Z,1.50
2023-01-27T16:40:58.590Z,0.70
2023-01-27T16:43:32.632Z,-0.20
2023-01-27T16:46:10.450Z,-0.90
2023-01-27T16:48:49.032Z,-0.70
2023-01-27T16:51:30.788Z,-1.00
2023-01-27T16:54:04.313Z,-1.70
2023-01-27T16:56:45.845Z,0.30
2023-01-27T16:59:38.068Z,-0.50
2023-01-27T17:02:43.410Z,-0.50
2023-01-27T17:05:42.503Z,-0.40
2023-01-27T17:08:56.852Z,-0.40
2023-01-27T17:11:33.171Z,0.70
2023-01-27T17:14:13.409Z,-0.90
2023-01-27T17:16:51.334Z,0.40
2023-01-27T17:19:39.578Z,1.40
2023-01-27T17:22:29.247Z,0.10
2023-01-27T17:25:10.594Z,-2.10
2023-01-27T17:27:47.468Z,-1.30
2023-01-27T17:30:22.886Z,-1.10
2023-01-27T17:36:13.851Z,-0.60
2023-01-27T17:38:58.217Z,-1.10
2023-01-27T17:44:29.150Z,-0.30
2023-01-27T17:47:05.132Z,0.00
2023-01-27T17:49:42.248Z,-0.60
2023-01-27T17:55:23.092Z,-0.80
2023-01-27T17:57:55.601Z,0.30
2023-01-27T18:00:27.134Z,0.70
2023-01-27T18:03:07.281Z,-0.60
2023-01-27T18:05:40.284Z,-1.60
2023-01-27T18:08:12.965Z,-0.30
2023-01-27T18:10:45.488Z,-1.30
2023-01-27T18:13:35.197Z,-0.60
2023-01-27T18:16:07.575Z,1.10
2023-01-27T18:18:37.059Z,1.20
2023-01-27T18:21:19.173Z,-0.60
2023-01-27T18:23:49.235Z,1.00
2023-01-27T18:26:21.205Z,1.10
2023-01-27T18:28:53.768Z,1.20
2023-01-27T18:31:25.559Z,-0.50
2023-01-27T18:33:58.872Z,0.70
2023-01-27T18:36:34.720Z,0.40
2023-01-27T18:39:03.603Z,-0.70
2023-01-27T18:41:35.484Z,-0.60
2023-01-27T18:44:03.712Z,-0.60
2023-01-27T18:46:32.136Z,0.40
2023-01-27T18:49:01.033Z,1.10
2023-01-27T18:51:30.609Z,-0.60
2023-01-27T18:53:58.983Z,-0.60
2023-01-27T18:56:27.042Z,-0.50
2023-01-27T18:58:55.385Z,-0.50
2023-01-27T19:01:25.023Z,-0.60
2023-01-27T19:03:57.097Z,-0.60
2023-01-27T19:06:26.393Z,-0.60
2023-01-27T19:08:55.967Z,-0.60
2023-01-27T19:11:24.131Z,-0.60
2023-01-27T19:13:52.532Z,-0.60
2023-01-27T19:16:21.175Z,-0.50
2023-01-27T19:18:50.054Z,0.60
2023-01-27T19:21:18.388Z,-0.60
2023-01-27T19:23:48.515Z,-0.60
2023-01-27T19:26:20.282Z,-0.60
2023-01-27T19:28:50.163Z,-0.60
2023-01-27T19:31:18.469Z,-0.60
2023-01-27T19:33:47.567Z,-0.70
2023-01-27T19:36:22.602Z,-0.70
2023-01-27T19:38:56.305Z,-0.70
2023-01-27T19:41:25.908Z,-0.60
2023-01-27T19:43:54.883Z,-0.70
2023-01-27T19:46:23.829Z,-0.70
2023-01-27T19:48:52.396Z,-0.70
2023-01-27T19:51:20.884Z,-0.70
2023-01-27T19:53:49.226Z,-0.60
2023-01-27T19:56:19.282Z,-0.70
2023-01-27T19:58:52.248Z,0.00
2023-01-27T20:01:20.700Z,-0.60
2023-01-27T20:03:49.154Z,-0.60
2023-01-27T20:06:18.935Z,-0.70
2023-01-27T20:08:47.949Z,-0.70
2023-01-27T20:11:40.973Z,-0.70
2023-01-27T20:14:14.178Z,-0.70
2023-01-27T20:16:42.996Z,-0.70
2023-01-27T20:19:11.982Z,-0.70
2023-01-27T20:21:40.100Z,-0.70
2023-01-27T20:24:09.087Z,-0.70
2023-01-27T20:26:37.624Z,-0.80
2023-01-27T20:29:05.818Z,-0.70
2023-01-27T20:31:35.554Z,-0.70
2023-01-27T20:34:03.657Z,0.60
2023-01-27T20:36:31.943Z,-0.70
2023-01-27T20:39:00.098Z,-0.70
2023-01-27T20:41:28.346Z,-0.70
2023-01-27T20:43:57.472Z,-0.70
2023-01-27T20:46:26.050Z,-0.70
2023-01-27T20:48:55.520Z,-0.70
2023-01-27T20:51:23.647Z,-0.70
2023-01-27T20:53:51.953Z,-0.70
2023-01-27T20:56:22.068Z,-0.70
2023-01-27T20:58:50.682Z,-0.70
2023-01-27T21:01:21.122Z,-0.70
2023-01-27T21:03:50.538Z,-0.80
2023-01-27T21:06:20.939Z,-0.70
2023-01-27T21:08:49.657Z,-0.80
2023-01-27T21:11:20.081Z,-0.80
2023-01-27T21:13:48.905Z,-0.80
2023-01-27T21:16:17.115Z,-0.80
2023-01-27T21:18:45.440Z,-0.80
2023-01-27T21:21:24.121Z,-0.80
2023-01-27T21:23:52.365Z,-0.80
2023-01-27T21:26:20.712Z,-0.80
2023-01-27T21:28:49.036Z,-0.80
2023-01-27T21:31:19.985Z,-0.80
2023-01-27T21:33:48.580Z,-0.80
2023-01-27T21:36:16.748Z,-0.80
2023-01-27T21:38:46.452Z,-0.80
2023-01-27T21:41:36.809Z,-0.80
2023-01-27T21:44:24.354Z,-0.80
2023-01-27T21:46:52.636Z,-0.90
2023-01-27T21:49:20.795Z,-0.80
2023-01-27T21:51:50.230Z,-0.90
2023-01-27T21:54:19.820Z,-0.90
2023-01-27T21:56:47.963Z,-0.70
2023-01-27T21:59:16.496Z,-0.80
2023-01-27T22:01:44.721Z,-0.90
2023-01-27T22:04:12.979Z,-0.90
2023-01-27T22:06:41.168Z,-1.10
2023-01-27T22:09:09.247Z,-0.80
2023-01-27T22:11:38.894Z,-0.80
2023-01-27T22:14:07.029Z,-0.90
2023-01-27T22:16:35.193Z,-0.90
2023-01-27T22:19:03.255Z,-0.80
2023-01-27T22:21:31.495Z,-0.80
2023-01-27T22:23:59.591Z,-0.80
2023-01-27T22:26:27.833Z,-0.80
2023-01-27T22:28:57.384Z,-0.80
2023-01-27T22:31:25.570Z,-0.80
2023-01-27T22:33:54.881Z,-0.80
2023-01-27T22:36:22.880Z,-0.80
2023-01-27T22:38:50.947Z,-0.90
2023-01-27T22:41:19.186Z,0.70
2023-01-27T22:43:50.660Z,-0.80
2023-01-27T22:46:19.921Z,-0.80
2023-01-27T22:48:49.072Z,-0.90
2023-01-27T22:51:17.495Z,-0.80
2023-01-27T22:53:45.665Z,-0.90
2023-01-27T22:56:13.673Z,-0.90
2023-01-27T22:58:41.780Z,-0.80
2023-01-27T23:01:09.702Z,0.00
2023-01-27T23:03:39.223Z,-0.90
2023-01-27T23:06:08.556Z,-0.90
2023-01-27T23:08:36.937Z,-0.90
2023-01-27T23:11:06.794Z,-0.90
2023-01-27T23:13:36.499Z,-0.90
2023-01-27T23:16:04.844Z,-0.90
2023-01-27T23:18:32.960Z,-0.90
2023-01-27T23:21:07.401Z,-0.90
2023-01-27T23:23:35.787Z,-0.60
2023-01-27T23:26:07.608Z,-0.90
2023-01-27T23:28:36.156Z,-0.90
2023-01-27T23:31:04.714Z,-0.90
2023-01-27T23:33:37.170Z,-0.90
2023-01-27T23:36:08.325Z,-1.10
2023-01-27T23:38:36.814Z,-0.90
2023-01-27T23:41:07.146Z,-0.90
2023-01-27T23:43:35.834Z,-0.90
2023-01-27T23:46:03.864Z,-0.90
2023-01-27T23:48:32.086Z,-0.90
2023-01-27T23:50:59.978Z,-0.30
2023-01-27T23:53:29.293Z,-0.90
2023-01-27T23:55:58.908Z,-0.90
2023-01-27T23:58:27.872Z,-0.90
